St. Michael Airport

About
Name: St. Michael Airport
Identifier:  SMK/PAMK
Serves:  St. Michael, Alaska
Owner:  State of Alaska DOT&PF - Northern Region
Public/Private:  Public
Local Time:  19. Aug 01:46 AKDT
Description: St. Michael Airport is a state-owned, public-use airport located two nautical miles west of the central business district of St. Michael, a city in the Nome Census Area of the U.S. state of Alaska.
Source: Wikipedia
Location
St. Michael
  United States

Runways
Identifier Length (m/ft) Surface
2/20 4,001/4,001 Gravel
Flights per Day
11 flights
Distance: 47km (29mi)
Punctuality
70% (3 flights per day delayed)
Delay Average: 12 minutes
Current Weather
 12 C (Humidity: 93%)
  4kt (7km/h / 4mph) from 330°
  16km (10 mi.)
 
 METAR PAMK 190856Z AUTO 33004KT 10SM CLR 12/11 A3020 RMK AO2 SLP228 T01220106 401440078 58017

Current Flights

Departures
Number Departure To Airline
Arrivals
Number Arrival From Airline

Current Delays

Departures
N/A
Arrivals
N/A

Destinations

Top Destinations
Airport Flights
per week
Seats
per week
  Unalakleet (UNK) 8 - 1 0
  Stebbins (WBB) 3 - 0 0
  Nome (OME) 1 - 0 0
  Anchorage (ANC) 0 - 0 0

Airlines & Planes

Top Airlines
Airline Flights
per Day
Seats
per Day
Bering Air 1 -
Top Plane Types
Model Flights Seats
Beech B200 Super King Air 1.8/day - 0
Cessna C208 0.2/day - 0
Beech 1900D 0.1/day - 0
Piper PA-31-350 0.1/day - 0